createdAt,value
2023-04-22T00:00:47.846Z,11.10
2023-04-22T00:01:48.169Z,10.60
2023-04-22T00:02:48.644Z,11.00
2023-04-22T00:03:49.144Z,11.10
2023-04-22T00:04:49.263Z,11.10
2023-04-22T00:05:49.730Z,9.50
2023-04-22T00:06:49.620Z,7.70
2023-04-22T00:07:49.957Z,8.40
2023-04-22T00:08:50.246Z,9.30
2023-04-22T00:09:50.731Z,8.60
2023-04-22T00:10:50.955Z,7.80
2023-04-22T00:11:51.267Z,7.30
2023-04-22T00:12:51.617Z,8.60
2023-04-22T00:13:51.898Z,9.40
2023-04-22T00:14:52.180Z,8.50
2023-04-22T00:15:52.520Z,9.70
2023-04-22T00:16:52.641Z,8.90
2023-04-22T00:17:53.182Z,8.40
2023-04-22T00:18:53.356Z,10.20
2023-04-22T00:19:53.646Z,8.00
2023-04-22T00:20:53.849Z,9.10
2023-04-22T00:21:54.321Z,8.70
2023-04-22T00:22:54.443Z,9.60
2023-04-22T00:23:54.742Z,9.20
2023-04-22T00:24:55.040Z,8.00
2023-04-22T00:25:55.277Z,9.30
2023-04-22T00:26:55.557Z,10.60
2023-04-22T00:27:55.873Z,10.20
2023-04-22T00:28:56.143Z,11.80
2023-04-22T00:29:56.549Z,9.00
2023-04-22T00:30:56.861Z,8.30
2023-04-22T00:31:57.411Z,10.90
2023-04-22T00:32:57.418Z,9.10
2023-04-22T00:33:57.763Z,10.30
2023-04-22T00:34:57.958Z,8.90
2023-04-22T00:35:58.462Z,10.30
2023-04-22T00:36:58.691Z,10.80
2023-04-22T00:37:58.982Z,12.90
2023-04-22T00:38:59.296Z,10.70
2023-04-22T00:39:59.651Z,14.30
2023-04-22T00:40:59.865Z,14.50
2023-04-22T00:42:00.178Z,14.80
2023-04-22T00:43:00.435Z,14.10
2023-04-22T00:44:00.782Z,12.40
2023-04-22T00:45:01.351Z,11.10
2023-04-22T00:46:01.330Z,11.00
2023-04-22T00:47:01.599Z,10.20
2023-04-22T00:48:01.987Z,9.50
2023-04-22T00:49:02.129Z,11.50
2023-04-22T00:50:02.545Z,11.00
2023-04-22T00:51:02.814Z,10.70
2023-04-22T00:52:02.989Z,10.80
2023-04-22T00:53:03.229Z,12.40
2023-04-22T00:54:03.593Z,12.90
2023-04-22T00:55:03.912Z,10.30
2023-04-22T00:56:04.125Z,9.90
2023-04-22T00:57:04.343Z,12.80
2023-04-22T00:58:04.697Z,10.90
2023-04-22T00:59:05.021Z,10.50
2023-04-22T01:00:05.422Z,10.00
2023-04-22T01:01:05.631Z,9.90
2023-04-22T01:02:05.943Z,12.60
2023-04-22T01:03:06.299Z,12.00
2023-04-22T01:04:06.654Z,12.50
2023-04-22T01:05:06.864Z,10.60
2023-04-22T01:06:07.063Z,11.40
2023-04-22T01:07:07.328Z,9.60
2023-04-22T01:08:07.641Z,10.10
2023-04-22T01:09:07.917Z,10.90
2023-04-22T01:10:08.252Z,13.50
2023-04-22T01:11:08.610Z,11.90
2023-04-22T01:12:09.017Z,11.50
2023-04-22T01:13:09.182Z,11.10
2023-04-22T01:14:09.658Z,11.80
2023-04-22T01:15:09.708Z,10.10
2023-04-22T01:16:10.291Z,12.60
2023-04-22T01:17:10.336Z,12.10
2023-04-22T01:18:11.039Z,11.60
2023-04-22T01:19:12.696Z,12.30
2023-04-22T01:20:13.256Z,13.00
2023-04-22T01:21:11.434Z,11.60
2023-04-22T01:22:13.900Z,11.10
2023-04-22T01:23:13.062Z,12.20
2023-04-22T01:24:12.483Z,12.00
2023-04-22T01:25:12.611Z,14.00
2023-04-22T01:26:12.947Z,15.10
2023-04-22T01:27:13.221Z,10.40
2023-04-22T01:28:13.526Z,11.70
2023-04-22T01:29:13.889Z,9.50
2023-04-22T01:30:14.144Z,8.00
2023-04-22T01:31:14.417Z,8.50
2023-04-22T01:32:14.731Z,9.80
2023-04-22T01:33:14.979Z,10.50
2023-04-22T01:34:15.321Z,10.50
2023-04-22T01:35:15.582Z,10.90
2023-04-22T01:36:15.878Z,9.70
2023-04-22T01:37:16.160Z,10.10
2023-04-22T01:38:16.614Z,12.20
2023-04-22T01:39:16.804Z,11.40
2023-04-22T01:40:17.086Z,10.20
2023-04-22T01:41:17.405Z,10.10
2023-04-22T01:42:17.733Z,11.60
2023-04-22T01:43:17.991Z,10.40
2023-04-22T01:44:18.370Z,9.60
2023-04-22T01:45:18.572Z,10.90
2023-04-22T01:46:18.908Z,9.90
2023-04-22T01:47:19.228Z,11.70
2023-04-22T01:48:19.516Z,10.90
2023-04-22T01:49:19.710Z,12.70
2023-04-22T01:50:20.034Z,11.30
2023-04-22T01:51:20.339Z,12.70
2023-04-22T01:52:20.684Z,9.70
2023-04-22T01:53:20.914Z,8.40
2023-04-22T01:54:21.126Z,11.50
2023-04-22T01:55:21.533Z,8.60
2023-04-22T01:56:21.734Z,10.00
2023-04-22T01:57:22.127Z,10.40
2023-04-22T01:58:22.360Z,11.90
2023-04-22T01:59:22.593Z,9.90
2023-04-22T02:00:22.899Z,10.70
2023-04-22T02:01:23.376Z,9.60
2023-04-22T02:02:23.709Z,10.70
2023-04-22T02:03:23.964Z,10.90
2023-04-22T02:04:24.005Z,9.50
2023-04-22T02:05:24.326Z,9.10
2023-04-22T02:06:24.622Z,12.20
2023-04-22T02:07:24.876Z,11.20
2023-04-22T02:08:25.316Z,11.00
2023-04-22T02:09:25.414Z,12.80
2023-04-22T02:10:25.727Z,10.20
2023-04-22T02:11:26.043Z,10.60
2023-04-22T02:12:26.310Z,11.80
2023-04-22T02:13:26.597Z,15.20
2023-04-22T02:14:26.916Z,10.50
2023-04-22T02:15:27.206Z,10.60
2023-04-22T02:16:27.656Z,11.00
2023-04-22T02:17:27.864Z,10.30
2023-04-22T02:18:28.252Z,10.60
2023-04-22T02:19:28.411Z,12.00
2023-04-22T02:20:28.711Z,11.20
2023-04-22T02:21:29.044Z,9.30
2023-04-22T02:22:29.377Z,11.80
2023-04-22T02:23:29.704Z,9.70
2023-04-22T02:24:29.987Z,10.90
2023-04-22T02:25:30.239Z,12.50
2023-04-22T02:26:30.554Z,12.60
2023-04-22T02:27:30.751Z,10.80
2023-04-22T02:28:31.082Z,13.40
2023-04-22T02:29:31.345Z,11.60
2023-04-22T02:30:31.682Z,10.00
2023-04-22T02:31:32.114Z,12.60
2023-04-22T02:32:32.354Z,13.30
2023-04-22T02:33:32.529Z,12.60
2023-04-22T02:34:33.023Z,12.20
2023-04-22T02:35:33.085Z,11.40
2023-04-22T02:36:33.549Z,12.00
2023-04-22T02:37:33.739Z,10.90
2023-04-22T02:38:34.112Z,10.40
2023-04-22T02:39:34.395Z,11.60
2023-04-22T02:40:34.673Z,12.70
2023-04-22T02:41:35.018Z,12.00
2023-04-22T02:42:35.241Z,12.50
2023-04-22T02:43:35.513Z,12.80
2023-04-22T02:44:35.767Z,12.20
2023-04-22T02:45:36.146Z,13.30
2023-04-22T02:46:36.459Z,13.90
2023-04-22T02:47:36.833Z,11.60
2023-04-22T02:48:36.907Z,11.00
2023-04-22T02:49:39.054Z,12.80
2023-04-22T02:50:40.926Z,14.60
2023-04-22T02:51:37.991Z,13.60
2023-04-22T02:52:37.966Z,11.90
2023-04-22T02:53:38.273Z,13.50
2023-04-22T02:54:38.609Z,10.80
2023-04-22T02:55:38.901Z,12.30
2023-04-22T02:56:39.133Z,11.70
2023-04-22T02:57:39.440Z,10.50
2023-04-22T02:58:39.797Z,12.30
2023-04-22T02:59:40.348Z,13.60
2023-04-22T03:00:40.428Z,12.00
2023-04-22T03:01:40.682Z,10.00
2023-04-22T03:02:41.089Z,11.40
2023-04-22T03:03:41.562Z,12.30
2023-04-22T03:04:41.499Z,11.00
2023-04-22T03:05:41.750Z,13.40
2023-04-22T03:06:42.222Z,10.80
2023-04-22T03:07:42.324Z,15.40
2023-04-22T03:08:42.616Z,13.30
2023-04-22T03:09:42.877Z,13.00
2023-04-22T03:10:43.303Z,13.10
2023-04-22T03:11:43.577Z,14.20
2023-04-22T03:12:43.841Z,13.00
2023-04-22T03:13:44.161Z,14.40
2023-04-22T03:14:44.593Z,11.80
2023-04-22T03:15:44.775Z,12.40
2023-04-22T03:16:45.195Z,12.60
2023-04-22T03:17:45.440Z,14.70
2023-04-22T03:18:45.686Z,12.60
2023-04-22T03:19:45.937Z,11.00
2023-04-22T03:20:46.225Z,10.30
2023-04-22T03:21:46.574Z,14.00
2023-04-22T03:22:47.239Z,9.40
2023-04-22T03:23:47.179Z,12.20
2023-04-22T03:24:47.416Z,10.70
2023-04-22T03:25:47.722Z,10.90
2023-04-22T03:26:47.971Z,12.40
2023-04-22T03:27:48.359Z,12.50
2023-04-22T03:28:48.725Z,13.50
2023-04-22T03:29:48.933Z,13.30
2023-04-22T03:30:49.179Z,12.30
2023-04-22T03:31:49.737Z,11.70
2023-04-22T03:32:50.044Z,10.20
2023-04-22T03:33:50.073Z,13.60
2023-04-22T03:34:50.425Z,11.70
2023-04-22T03:35:50.651Z,12.60
2023-04-22T03:36:50.949Z,11.70
2023-04-22T03:37:51.309Z,12.70
2023-04-22T03:38:51.592Z,13.30
2023-04-22T03:39:51.907Z,13.40
2023-04-22T03:40:52.254Z,14.90
2023-04-22T03:41:52.567Z,13.60
2023-04-22T03:42:52.824Z,11.70
2023-04-22T03:43:53.012Z,13.10
2023-04-22T03:44:53.355Z,13.10
2023-04-22T03:45:53.617Z,14.00
2023-04-22T03:46:53.921Z,13.50
2023-04-22T03:47:54.233Z,15.90
2023-04-22T03:48:54.516Z,15.70
2023-04-22T03:49:54.815Z,12.30
2023-04-22T03:50:55.126Z,12.60
2023-04-22T03:51:55.392Z,12.50
2023-04-22T03:52:55.600Z,13.00
2023-04-22T03:53:55.870Z,13.80
2023-04-22T03:54:56.195Z,13.60
2023-04-22T03:55:56.480Z,11.70
2023-04-22T03:56:56.681Z,13.10
2023-04-22T03:57:56.962Z,14.40
2023-04-22T03:58:57.374Z,13.00
2023-04-22T03:59:57.567Z,14.30
2023-04-22T04:00:57.859Z,14.70
2023-04-22T04:01:58.161Z,14.80
2023-04-22T04:02:58.570Z,11.90
2023-04-22T04:03:58.965Z,16.30
2023-04-22T04:04:59.253Z,14.00
2023-04-22T04:05:59.306Z,12.20
2023-04-22T04:06:59.747Z,13.70
2023-04-22T04:07:59.890Z,13.90
2023-04-22T04:09:00.209Z,14.70
2023-04-22T04:10:00.503Z,15.30
2023-04-22T04:11:00.810Z,16.50
2023-04-22T04:12:01.215Z,14.70
2023-04-22T04:13:01.403Z,14.60
2023-04-22T04:14:01.597Z,12.30
2023-04-22T04:15:01.956Z,13.50
2023-04-22T04:16:02.179Z,13.10
2023-04-22T04:17:02.514Z,13.30
2023-04-22T04:18:02.750Z,14.90
2023-04-22T04:19:03.164Z,12.00
2023-04-22T04:20:03.319Z,12.30
2023-04-22T04:21:03.636Z,12.90
2023-04-22T04:22:03.952Z,15.20
2023-04-22T04:23:04.278Z,12.50
2023-04-22T04:24:05.025Z,13.40
2023-04-22T04:25:04.939Z,13.30
2023-04-22T04:26:05.258Z,13.10
2023-04-22T04:27:05.575Z,12.30
2023-04-22T04:28:05.890Z,17.50
2023-04-22T04:29:06.350Z,12.40
2023-04-22T04:30:06.524Z,11.80
2023-04-22T04:31:06.751Z,11.30
2023-04-22T04:32:06.973Z,12.80
2023-04-22T04:33:07.542Z,15.40
2023-04-22T04:34:07.649Z,15.70
2023-04-22T04:35:08.096Z,14.10
2023-04-22T04:36:08.198Z,11.30
2023-04-22T04:37:08.563Z,12.60
2023-04-22T04:38:08.738Z,8.80
2023-04-22T04:39:09.187Z,12.40
2023-04-22T04:40:09.350Z,12.80
2023-04-22T04:41:09.721Z,11.00
2023-04-22T04:42:09.972Z,10.10
2023-04-22T04:43:10.228Z,9.60
2023-04-22T04:44:10.419Z,9.40
2023-04-22T04:45:10.775Z,9.10
2023-04-22T04:46:11.018Z,9.30
2023-04-22T04:47:11.420Z,8.30
2023-04-22T04:48:11.661Z,10.30
2023-04-22T04:49:11.804Z,11.10
2023-04-22T04:50:12.122Z,8.60
2023-04-22T04:51:12.522Z,10.70
2023-04-22T04:52:12.768Z,12.20
2023-04-22T04:53:13.197Z,9.40
2023-04-22T04:54:13.239Z,7.60
2023-04-22T04:55:13.536Z,7.90
2023-04-22T04:56:13.854Z,9.60
2023-04-22T04:57:14.239Z,9.40
2023-04-22T04:58:14.457Z,9.80
2023-04-22T04:59:14.754Z,8.40
2023-04-22T05:00:15.109Z,9.80
2023-04-22T05:01:15.432Z,9.30
2023-04-22T05:02:16.013Z,8.30
2023-04-22T05:03:16.134Z,10.30
2023-04-22T05:04:16.649Z,11.10
2023-04-22T05:05:16.705Z,8.90
2023-04-22T05:06:17.086Z,8.20
2023-04-22T05:07:17.291Z,7.80
2023-04-22T05:08:17.618Z,8.20
2023-04-22T05:09:17.943Z,8.60
2023-04-22T05:10:18.124Z,7.70
2023-04-22T05:11:18.595Z,8.40
2023-04-22T05:12:18.754Z,7.70
2023-04-22T05:13:19.186Z,7.80
2023-04-22T05:14:19.299Z,8.90
2023-04-22T05:15:19.678Z,7.90
2023-04-22T05:16:20.008Z,8.80
2023-04-22T05:17:20.359Z,8.80
2023-04-22T05:18:20.455Z,7.00
2023-04-22T05:19:20.768Z,7.80
2023-04-22T05:20:21.073Z,8.60
2023-04-22T05:21:21.458Z,8.70
2023-04-22T05:22:21.665Z,8.80
2023-04-22T05:23:21.999Z,7.60
2023-04-22T05:24:22.307Z,7.40
2023-04-22T05:25:22.544Z,8.50
2023-04-22T05:26:22.726Z,7.80
2023-04-22T05:27:23.038Z,11.20
2023-04-22T05:28:23.354Z,8.20
2023-04-22T05:29:23.876Z,7.50
2023-04-22T05:30:23.883Z,8.00
2023-04-22T05:31:24.381Z,9.50
2023-04-22T05:32:24.711Z,9.90
2023-04-22T05:33:24.732Z,8.30
2023-04-22T05:34:25.076Z,8.40
2023-04-22T05:35:25.336Z,7.70
2023-04-22T05:36:25.489Z,8.10
2023-04-22T05:37:25.841Z,8.20
2023-04-22T05:38:26.130Z,8.00
2023-04-22T05:39:26.583Z,7.60
2023-04-22T05:40:26.706Z,9.10
2023-04-22T05:41:27.016Z,9.20
2023-04-22T05:42:27.333Z,8.20
2023-04-22T05:43:27.659Z,8.40
2023-04-22T05:44:28.007Z,8.70
2023-04-22T05:45:28.387Z,7.50
2023-04-22T05:46:28.725Z,7.60
2023-04-22T05:47:28.863Z,8.50
2023-04-22T05:48:29.152Z,8.90
2023-04-22T05:49:29.482Z,9.40
2023-04-22T05:50:29.703Z,9.20
2023-04-22T05:51:30.066Z,8.80
2023-04-22T05:52:30.390Z,8.90
2023-04-22T05:53:30.523Z,7.60
2023-04-22T05:54:31.264Z,9.20
2023-04-22T05:55:31.131Z,9.10
2023-04-22T05:56:31.292Z,10.10
2023-04-22T05:57:31.697Z,9.00
2023-04-22T05:58:31.869Z,7.90
2023-04-22T05:59:32.209Z,7.90
2023-04-22T06:00:32.428Z,8.40
2023-04-22T06:01:32.759Z,8.40
2023-04-22T06:02:33.419Z,11.10
2023-04-22T06:03:33.511Z,8.40
2023-04-22T06:04:37.166Z,9.10
2023-04-22T06:05:33.881Z,9.60
2023-04-22T06:06:34.156Z,7.90
2023-04-22T06:07:34.509Z,8.10
2023-04-22T06:08:34.717Z,8.50
2023-04-22T06:09:35.116Z,8.60
2023-04-22T06:10:35.265Z,8.00
2023-04-22T06:11:35.671Z,7.80
2023-04-22T06:12:35.881Z,8.60
2023-04-22T06:13:36.244Z,9.30
2023-04-22T06:14:36.510Z,8.70
2023-04-22T06:15:36.788Z,7.50
2023-04-22T06:16:36.997Z,8.20
2023-04-22T06:17:37.371Z,8.80
2023-04-22T06:18:38.291Z,10.00
2023-04-22T06:19:38.012Z,9.10
2023-04-22T06:20:38.229Z,9.30
2023-04-22T06:21:38.398Z,7.70
2023-04-22T06:22:38.635Z,8.00
2023-04-22T06:23:38.992Z,7.90
2023-04-22T06:24:39.511Z,7.90
2023-04-22T06:25:39.549Z,7.10
2023-04-22T06:26:39.980Z,10.10
2023-04-22T06:27:40.227Z,7.50
2023-04-22T06:28:40.512Z,8.80
2023-04-22T06:29:40.846Z,7.70
2023-04-22T06:30:40.955Z,7.80
2023-04-22T06:31:41.311Z,11.10
2023-04-22T06:32:41.536Z,9.10
2023-04-22T06:33:41.867Z,8.80
2023-04-22T06:34:42.228Z,9.60
2023-04-22T06:35:42.612Z,8.90
2023-04-22T06:36:42.753Z,7.10
2023-04-22T06:37:43.072Z,8.80
2023-04-22T06:38:43.388Z,7.70
2023-04-22T06:39:43.865Z,8.20
2023-04-22T06:40:44.013Z,9.70
2023-04-22T06:41:44.574Z,7.70
2023-04-22T06:42:44.609Z,8.20
2023-04-22T06:43:44.928Z,8.10
2023-04-22T06:44:46.097Z,7.70
2023-04-22T06:45:45.551Z,8.80
2023-04-22T06:46:45.847Z,8.20
2023-04-22T06:47:46.098Z,7.40
2023-04-22T06:48:46.384Z,9.20
2023-04-22T06:49:46.778Z,8.60
2023-04-22T06:50:47.031Z,8.30
2023-04-22T06:51:47.248Z,7.90
2023-04-22T06:52:47.557Z,7.60
2023-04-22T06:53:47.878Z,8.40
2023-04-22T06:54:48.271Z,9.80
2023-04-22T06:55:48.556Z,10.70
2023-04-22T06:56:48.802Z,8.90
2023-04-22T06:57:49.186Z,8.80
2023-04-22T06:58:49.360Z,8.10
2023-04-22T06:59:49.721Z,8.30
2023-04-22T07:00:49.926Z,9.60
2023-04-22T07:01:50.353Z,8.70
2023-04-22T07:02:50.590Z,9.30
2023-04-22T07:03:50.844Z,10.00
2023-04-22T07:04:51.169Z,8.40
2023-04-22T07:05:51.322Z,8.60
2023-04-22T07:06:51.581Z,11.30
2023-04-22T07:07:51.919Z,9.80
2023-04-22T07:08:52.196Z,10.70
2023-04-22T07:09:52.588Z,8.40
2023-04-22T07:10:52.756Z,9.10
2023-04-22T07:11:52.981Z,8.40
2023-04-22T07:12:53.289Z,9.00
2023-04-22T07:13:53.442Z,10.00
2023-04-22T07:14:53.799Z,10.50
2023-04-22T07:15:54.250Z,8.00
2023-04-22T07:16:54.448Z,8.20
2023-04-22T07:17:54.658Z,8.50
2023-04-22T07:18:54.848Z,8.70
2023-04-22T07:19:55.190Z,9.70
2023-04-22T07:20:55.554Z,8.40
2023-04-22T07:21:55.756Z,8.90
2023-04-22T07:22:56.084Z,8.10
2023-04-22T07:23:56.417Z,7.80
2023-04-22T07:24:56.756Z,8.50
2023-04-22T07:25:57.015Z,8.90
2023-04-22T07:26:57.212Z,8.30
2023-04-22T07:27:57.536Z,9.30
2023-04-22T07:28:57.883Z,8.50
2023-04-22T07:29:58.098Z,8.70
2023-04-22T07:30:58.427Z,8.70
2023-04-22T07:31:58.817Z,8.40
2023-04-22T07:32:59.102Z,10.10
2023-04-22T07:33:59.276Z,9.50
2023-04-22T07:34:59.668Z,8.90
2023-04-22T07:35:59.872Z,9.70
2023-04-22T07:37:00.292Z,9.70
2023-04-22T07:38:00.450Z,9.40
2023-04-22T07:39:00.714Z,8.80
2023-04-22T07:40:01.012Z,8.90
2023-04-22T07:41:01.358Z,10.70
2023-04-22T07:42:01.568Z,10.50
2023-04-22T07:43:01.999Z,6.90
2023-04-22T07:44:02.233Z,8.20
2023-04-22T07:45:02.501Z,8.80
2023-04-22T07:46:02.734Z,8.30
2023-04-22T07:47:03.002Z,10.50
2023-04-22T07:48:03.267Z,8.60
2023-04-22T07:49:03.438Z,8.50
2023-04-22T07:50:03.794Z,9.80
2023-04-22T07:51:04.125Z,8.20
2023-04-22T07:52:04.348Z,10.30
2023-04-22T07:53:04.586Z,8.30
2023-04-22T07:54:04.936Z,7.80
2023-04-22T07:55:05.144Z,8.00
2023-04-22T07:56:05.511Z,8.20
2023-04-22T07:57:05.695Z,8.40
2023-04-22T07:58:05.987Z,8.20
2023-04-22T07:59:06.351Z,8.10
2023-04-22T08:00:06.576Z,8.60
2023-04-22T08:01:06.871Z,9.50
2023-04-22T08:02:07.106Z,7.90
2023-04-22T08:03:07.377Z,8.30
2023-04-22T08:04:07.925Z,8.20
2023-04-22T08:05:07.984Z,9.00
2023-04-22T08:06:08.174Z,7.60
2023-04-22T08:07:29.833Z,9.20
2023-04-22T08:08:09.798Z,9.20
2023-04-22T08:09:09.033Z,6.90
2023-04-22T08:10:09.239Z,7.30
2023-04-22T08:11:09.554Z,12.40
2023-04-22T08:12:09.869Z,8.20
2023-04-22T08:13:10.257Z,8.60
2023-04-22T08:14:10.663Z,7.90
2023-04-22T08:15:10.807Z,8.00
2023-04-22T08:16:11.024Z,7.60
2023-04-22T08:17:11.198Z,9.30
2023-04-22T08:18:11.666Z,8.60
2023-04-22T08:19:11.890Z,8.00
2023-04-22T08:20:12.182Z,6.90
2023-04-22T08:21:12.453Z,9.90
2023-04-22T08:22:12.677Z,9.40
2023-04-22T08:23:12.914Z,7.50
2023-04-22T08:24:13.115Z,9.00
2023-04-22T08:25:13.518Z,7.60
2023-04-22T08:26:13.734Z,8.00
2023-04-22T08:27:13.939Z,7.60
2023-04-22T08:28:14.254Z,7.50
2023-04-22T08:29:14.580Z,8.10
2023-04-22T08:30:15.033Z,7.50
2023-04-22T08:31:15.197Z,11.00
2023-04-22T08:32:15.525Z,8.00
2023-04-22T08:33:15.794Z,7.50
2023-04-22T08:34:16.081Z,7.90
2023-04-22T08:35:16.434Z,7.60
2023-04-22T08:36:16.602Z,7.70
2023-04-22T08:37:16.945Z,8.70
2023-04-22T08:38:17.266Z,8.00
2023-04-22T08:39:17.576Z,7.90
2023-04-22T08:40:17.812Z,11.20
2023-04-22T08:41:18.004Z,7.70
2023-04-22T08:42:18.355Z,8.30
2023-04-22T08:43:18.691Z,7.10
2023-04-22T08:44:18.874Z,8.40
2023-04-22T08:45:19.100Z,10.40
2023-04-22T08:46:26.355Z,8.00
2023-04-22T08:47:19.620Z,8.40
2023-04-22T08:48:19.907Z,7.70
2023-04-22T08:49:20.089Z,7.50
2023-04-22T08:50:20.471Z,9.30
2023-04-22T08:51:20.638Z,8.80
2023-04-22T08:52:21.066Z,8.00
2023-04-22T08:53:23.031Z,7.10
2023-04-22T08:54:21.521Z,10.90
2023-04-22T08:55:21.824Z,9.20
2023-04-22T08:56:22.270Z,9.10
2023-04-22T08:57:22.392Z,8.90
2023-04-22T08:58:22.821Z,9.20
2023-04-22T08:59:22.989Z,7.90
2023-04-22T09:00:23.498Z,8.60
2023-04-22T09:01:24.571Z,7.20
2023-04-22T09:02:23.894Z,8.50
2023-04-22T09:03:24.128Z,8.10
2023-04-22T09:04:24.438Z,6.40
2023-04-22T09:05:26.604Z,6.70
2023-04-22T09:06:24.872Z,6.30
2023-04-22T09:07:25.178Z,6.90
2023-04-22T09:08:25.741Z,7.00
2023-04-22T09:09:25.767Z,9.00
2023-04-22T09:10:26.082Z,8.00
2023-04-22T09:11:26.282Z,6.70
2023-04-22T09:12:26.726Z,7.20
2023-04-22T09:13:26.853Z,7.90
2023-04-22T09:14:27.228Z,6.50
2023-04-22T09:15:27.527Z,6.40
2023-04-22T09:16:27.923Z,8.60
2023-04-22T09:17:28.099Z,8.50
2023-04-22T09:18:28.508Z,8.50
2023-04-22T09:19:28.715Z,8.30
2023-04-22T09:20:28.953Z,8.20
2023-04-22T09:21:29.168Z,7.20
2023-04-22T09:22:29.591Z,8.10
2023-04-22T09:23:29.875Z,7.20
2023-04-22T09:24:30.073Z,7.30
2023-04-22T09:25:30.385Z,8.30
2023-04-22T09:26:30.732Z,8.10
2023-04-22T09:27:31.154Z,7.50
2023-04-22T09:28:31.432Z,6.70
2023-04-22T09:29:31.662Z,6.30
2023-04-22T09:30:31.920Z,7.40
2023-04-22T09:31:32.107Z,7.90
2023-04-22T09:32:32.460Z,8.00
2023-04-22T09:33:32.876Z,8.00
2023-04-22T09:34:33.038Z,7.90
2023-04-22T09:35:33.463Z,7.50
2023-04-22T09:36:33.702Z,8.20
2023-04-22T09:37:46.684Z,6.80
2023-04-22T09:38:35.256Z,8.00
2023-04-22T09:39:34.596Z,7.30
2023-04-22T09:40:34.945Z,13.30
2023-04-22T09:41:35.159Z,11.20
2023-04-22T09:42:35.535Z,9.70
2023-04-22T09:43:35.730Z,8.30
2023-04-22T09:44:36.052Z,7.40
2023-04-22T09:45:36.442Z,7.70
2023-04-22T09:46:36.632Z,7.60
2023-04-22T09:47:36.993Z,8.50
2023-04-22T09:48:37.188Z,6.40
2023-04-22T09:49:38.004Z,7.90
2023-04-22T09:50:37.924Z,8.90
2023-04-22T09:51:38.152Z,8.00
2023-04-22T09:52:38.542Z,7.20
2023-04-22T09:53:38.739Z,8.90
2023-04-22T09:54:45.555Z,7.10
2023-04-22T09:55:39.269Z,8.70
2023-04-22T09:56:39.669Z,7.60
2023-04-22T09:57:39.831Z,7.70
2023-04-22T09:58:40.175Z,7.30
2023-04-22T09:59:40.644Z,7.50
2023-04-22T10:00:40.765Z,8.40
2023-04-22T10:01:41.235Z,7.10
2023-04-22T10:02:41.246Z,7.90
2023-04-22T10:03:41.536Z,8.60
2023-04-22T10:04:41.709Z,6.60
2023-04-22T10:05:41.910Z,8.10
2023-04-22T10:06:42.298Z,14.70
2023-04-22T10:07:42.515Z,10.40
2023-04-22T10:08:43.025Z,8.00
2023-04-22T10:09:43.183Z,10.60
2023-04-22T10:10:43.398Z,9.60
2023-04-22T10:11:43.737Z,8.50
2023-04-22T10:12:43.947Z,7.30
2023-04-22T10:13:44.400Z,7.30
2023-04-22T10:14:44.600Z,6.80
2023-04-22T10:15:44.753Z,8.40
2023-04-22T10:16:45.171Z,9.90
2023-04-22T10:17:45.397Z,6.80
2023-04-22T10:18:45.666Z,9.30
2023-04-22T10:19:45.802Z,7.20
2023-04-22T10:20:46.128Z,8.90
2023-04-22T10:21:46.545Z,6.40
2023-04-22T10:22:46.734Z,6.80
2023-04-22T10:23:46.975Z,7.50
2023-04-22T10:24:47.188Z,7.60
2023-04-22T10:25:47.533Z,7.30
2023-04-22T10:26:47.871Z,8.30
2023-04-22T10:27:48.052Z,10.90
2023-04-22T10:28:48.628Z,8.20
2023-04-22T10:29:48.615Z,8.70
2023-04-22T10:30:49.153Z,7.90
2023-04-22T10:31:49.192Z,8.80
2023-04-22T10:32:49.532Z,8.50
2023-04-22T10:33:49.779Z,5.90
2023-04-22T10:34:49.986Z,6.90
2023-04-22T10:35:50.199Z,7.40
2023-04-22T10:36:50.542Z,8.20
2023-04-22T10:37:50.864Z,7.90
2023-04-22T10:38:51.080Z,6.20
2023-04-22T10:39:51.284Z,9.00
2023-04-22T10:40:51.623Z,8.00
2023-04-22T10:41:52.017Z,7.70
2023-04-22T10:42:52.268Z,7.70
2023-04-22T10:43:52.513Z,10.10
2023-04-22T10:44:52.773Z,7.90
2023-04-22T10:45:52.997Z,8.10
2023-04-22T10:46:53.401Z,8.30
2023-04-22T10:47:53.580Z,6.40
2023-04-22T10:48:53.913Z,9.10
2023-04-22T10:49:54.173Z,8.00
2023-04-22T10:50:54.472Z,11.20
2023-04-22T10:51:54.705Z,8.50
2023-04-22T10:52:54.978Z,7.20
2023-04-22T10:53:55.176Z,7.40
2023-04-22T10:54:55.532Z,8.70
2023-04-22T10:55:55.751Z,6.50
2023-04-22T10:56:58.123Z,9.60
2023-04-22T10:57:56.382Z,7.90
2023-04-22T10:58:56.718Z,7.50
2023-04-22T10:59:57.135Z,6.90
2023-04-22T11:00:57.343Z,8.60
2023-04-22T11:01:57.640Z,7.90
2023-04-22T11:02:58.047Z,8.30
2023-04-22T11:03:58.323Z,6.90
2023-04-22T11:04:58.488Z,6.50
2023-04-22T11:05:58.817Z,8.90
2023-04-22T11:06:59.196Z,7.00
2023-04-22T11:07:59.369Z,9.30
2023-04-22T11:08:59.716Z,8.00
2023-04-22T11:10:00.121Z,9.30
2023-04-22T11:11:00.410Z,7.20
2023-04-22T11:12:00.564Z,8.90
2023-04-22T11:13:00.900Z,8.50
2023-04-22T11:14:01.253Z,6.90
2023-04-22T11:15:01.510Z,9.10
2023-04-22T11:16:01.778Z,7.30
2023-04-22T11:17:02.069Z,10.00
2023-04-22T11:18:02.314Z,9.60
2023-04-22T11:19:02.627Z,7.50
2023-04-22T11:20:02.822Z,10.60
2023-04-22T11:21:03.175Z,8.70
2023-04-22T11:22:03.529Z,7.70
2023-04-22T11:23:03.740Z,7.60
2023-04-22T11:24:04.092Z,6.40
2023-04-22T11:25:04.486Z,8.50
2023-04-22T11:26:04.688Z,10.60
2023-04-22T11:27:04.956Z,7.10
2023-04-22T11:28:05.114Z,7.00
2023-04-22T11:29:05.565Z,9.50
2023-04-22T11:30:05.751Z,10.50
2023-04-22T11:31:05.980Z,8.60
2023-04-22T11:32:06.331Z,7.70
2023-04-22T11:33:06.684Z,11.50
2023-04-22T11:34:06.993Z,11.40
2023-04-22T11:35:07.195Z,9.70
2023-04-22T11:36:07.549Z,7.30
2023-04-22T11:37:07.821Z,10.90
2023-04-22T11:38:08.021Z,8.20
2023-04-22T11:39:08.393Z,7.50
2023-04-22T11:40:28.126Z,9.50
2023-04-22T11:41:09.934Z,7.40
2023-04-22T11:42:09.190Z,6.80
2023-04-22T11:43:09.410Z,12.00
2023-04-22T11:44:09.688Z,13.60
2023-04-22T11:45:09.904Z,9.40
2023-04-22T11:46:10.222Z,8.90
2023-04-22T11:47:10.552Z,7.50
2023-04-22T11:48:10.771Z,8.20
2023-04-22T11:49:11.111Z,7.90
2023-04-22T11:50:11.312Z,6.60
2023-04-22T11:51:11.840Z,7.50
2023-04-22T11:52:11.948Z,7.60
2023-04-22T11:53:12.199Z,6.60
2023-04-22T11:54:12.395Z,10.10
2023-04-22T11:55:12.756Z,11.50
2023-04-22T11:56:12.951Z,10.50
2023-04-22T11:57:13.337Z,13.40
2023-04-22T11:58:13.670Z,12.30
2023-04-22T11:59:13.897Z,9.80
2023-04-22T12:00:14.103Z,6.40
2023-04-22T12:01:14.437Z,8.40
2023-04-22T12:02:14.859Z,10.60
2023-04-22T12:03:15.739Z,9.30
2023-04-22T12:04:15.424Z,8.10
2023-04-22T12:05:15.724Z,9.70
2023-04-22T12:06:15.979Z,7.50
2023-04-22T12:07:16.210Z,8.90
2023-04-22T12:08:16.635Z,8.70
2023-04-22T12:09:16.807Z,10.00
2023-04-22T12:10:17.148Z,5.60
2023-04-22T12:11:17.302Z,7.70
2023-04-22T12:12:17.606Z,8.30
2023-04-22T12:13:17.961Z,7.70
2023-04-22T12:14:18.181Z,6.70
2023-04-22T12:15:18.905Z,9.40
2023-04-22T12:16:18.882Z,11.70
2023-04-22T12:17:19.044Z,11.50
2023-04-22T12:18:19.409Z,10.00
2023-04-22T12:19:19.642Z,10.00
2023-04-22T12:20:19.892Z,12.00
2023-04-22T12:21:20.177Z,7.70
2023-04-22T12:22:20.316Z,8.60
2023-04-22T12:23:20.685Z,11.00
2023-04-22T12:24:21.013Z,12.10
2023-04-22T12:25:21.233Z,9.60
2023-04-22T12:26:22.694Z,7.70
2023-04-22T12:27:21.787Z,7.30
2023-04-22T12:28:22.201Z,9.20
2023-04-22T12:29:22.344Z,10.80
2023-04-22T12:30:22.688Z,18.70
2023-04-22T12:31:23.085Z,29.30
2023-04-22T12:32:24.917Z,6.90
2023-04-22T12:33:23.617Z,9.80
2023-04-22T12:34:23.792Z,7.60
2023-04-22T12:35:24.102Z,8.60
2023-04-22T12:36:24.401Z,9.00
2023-04-22T12:37:24.706Z,7.70
2023-04-22T12:38:25.145Z,6.90
2023-04-22T12:39:25.325Z,8.60
2023-04-22T12:40:25.673Z,7.80
2023-04-22T12:41:25.923Z,11.70
2023-04-22T12:42:26.167Z,7.10
2023-04-22T12:43:26.519Z,7.90
2023-04-22T12:44:26.833Z,7.50
2023-04-22T12:45:26.999Z,8.30
2023-04-22T12:46:27.427Z,8.30
2023-04-22T12:47:27.603Z,7.60
2023-04-22T12:48:27.983Z,7.50
2023-04-22T12:49:28.182Z,11.60
2023-04-22T12:50:28.431Z,9.30
2023-04-22T12:51:28.759Z,12.00
2023-04-22T12:52:29.032Z,8.60
2023-04-22T12:53:29.226Z,10.60
2023-04-22T12:54:29.601Z,11.60
2023-04-22T12:55:29.914Z,8.10
2023-04-22T12:56:30.123Z,12.30
2023-04-22T12:57:30.549Z,14.40
2023-04-22T12:58:30.647Z,11.20
2023-04-22T12:59:30.863Z,12.00
2023-04-22T13:00:31.146Z,10.70
2023-04-22T13:01:32.156Z,10.70
2023-04-22T13:02:31.750Z,9.60
2023-04-22T13:03:32.142Z,11.80
2023-04-22T13:04:32.285Z,9.80
2023-04-22T13:05:32.581Z,7.90
2023-04-22T13:06:32.901Z,9.40
2023-04-22T13:07:33.362Z,9.70
2023-04-22T13:08:33.559Z,9.70
2023-04-22T13:09:33.845Z,8.30
2023-04-22T13:10:34.156Z,9.00
2023-04-22T13:11:34.488Z,9.40
2023-04-22T13:12:35.881Z,11.00